Date,TemperatureHighF,TemperatureAvgF,TemperatureLowF,DewpointHighF,DewpointAvgF,DewpointLowF,HumidityHigh,HumidityAvg,HumidityLow,PressureMaxIn,PressureMinIn,WindSpeedMaxMPH,WindSpeedAvgMPH,GustSpeedMaxMPH,PrecipitationSumIn
2013-4-1,68.2,54.6,39.3,52.0,42.9,35.0,98,69,39,30.09,29.89,8,1,11,0.00
2013-4-2,56.9,47.4,38.0,38.0,26.0,19.0,72,46,24,30.25,30.09,4,1,9,0.00
2013-4-3,56.5,49.3,40.7,29.0,23.5,19.0,62,38,25,30.25,30.16,11,1,14,0.00
2013-4-4,50.6,43.1,39.5,43.0,39.6,26.0,96,89,39,30.17,30.00,3,0,6,1.50
2013-4-5,67.5,51.9,41.7,46.0,39.5,33.0,96,69,28,30.11,30.00,4,1,15,0.09
2013-4-6,72.7,54.7,36.4,43.0,38.2,34.0,93,60,28,30.19,30.05,4,0,8,0.00
2013-4-7,75.2,62.2,47.1,48.0,44.2,39.0,82,54,30,30.16,30.02,6,1,10,0.00
2013-4-8,77.6,64.5,51.3,56.0,51.5,47.0,87,65,42,30.09,30.00,6,1,11,0.00
2013-4-9,82.5,67.5,50.7,58.0,54.3,49.0,93,66,41,30.17,30.00,6,1,9,0.00
2013-4-10,85.0,69.5,53.7,60.0,55.9,51.0,92,66,38,30.09,29.85,4,0,8,0.00
2013-4-11,78.6,68.1,59.9,65.0,59.2,56.0,97,74,54,29.87,29.56,6,1,13,1.11
2013-4-12,69.0,58.5,48.4,61.0,44.8,36.0,96,64,30,29.95,29.59,3,0,8,0.20
2013-4-13,76.8,58.8,40.5,43.0,38.4,31.0,94,54,19,30.08,29.96,6,0,8,0.00
2013-4-14,63.1,53.8,43.7,54.0,45.7,38.0,95,75,48,30.04,29.93,3,0,8,0.06
2013-4-15,78.5,64.9,54.2,59.0,56.0,53.0,96,75,47,30.08,29.93,4,0,7,0.00
2013-4-16,80.7,68.6,59.4,65.0,61.3,57.0,92,78,58,30.21,30.09,3,0,6,0.00
2013-4-17,86.3,67.9,60.8,67.0,62.2,58.0,98,84,49,30.18,30.04,10,1,18,0.23
2013-4-18,82.6,69.0,56.8,64.0,58.8,56.0,98,74,42,30.04,29.78,5,1,10,0.00
2013-4-19,73.3,57.6,43.3,64.0,49.1,32.0,96,74,56,30.11,29.65,4,1,10,1.35
2013-4-20,64.2,48.5,32.1,37.0,32.1,26.0,96,60,24,30.29,30.12,4,0,10,0.00
2013-4-21,70.5,54.4,40.7,43.0,35.7,31.0,79,53,25,30.38,30.23,5,0,9,0.00
2013-4-22,73.4,56.4,40.0,45.0,41.6,39.0,95,63,29,30.33,30.12,4,0,6,0.00
2013-4-23,75.9,59.7,44.3,51.0,44.8,37.0,92,62,36,30.22,30.01,3,0,6,0.00
2013-4-24,69.0,58.4,47.9,62.0,52.4,41.0,93,80,69,30.23,30.00,3,0,9,0.10
2013-4-25,69.2,52.5,37.7,41.0,35.3,23.0,91,58,19,30.36,30.23,6,0,9,0.00
2013-4-26,73.9,56.2,39.3,51.0,38.8,35.0,94,57,27,30.39,30.26,3,0,6,0.12
2013-4-27,54.7,52.4,50.4,53.0,51.3,49.0,97,96,94,30.38,30.11,4,0,6,1.32
2013-4-28,59.5,56.6,51.7,59.0,56.0,51.0,98,98,97,30.12,29.95,1,0,4,2.00
2013-4-29,75.0,62.9,54.9,58.0,55.9,53.0,98,81,50,30.03,29.91,1,0,3,0.00
2013-4-30,80.7,63.5,47.3,60.0,53.7,47.0,98,75,37,30.06,29.95,3,0,5,0.00